VCBI/CMB METAR and TAF weather

Enter ICAO airport designator
Station Type Date Time Source
VCBI METAR 2019/12/12 09:10 UTC NOAA

VCBI 120910Z 33006KT 270V060 9999 SCT018 31/26 Q1008 NOSIG


Station Type Date Time Source
VCBI Decoded METAR 2019/12/12 09:10 UTC NOAA

Katunayake, Sri Lanka (VCBI) 07-10N 079-53E 8M
Dec 12, 2019 - 04:10 AM EST / 2019.12.12 0910 UTC
Wind: from the NNW (330 degrees) at 7 MPH (6 KT) (direction variable):0
Visibility: greater than 7 mile(s):0
Sky conditions: partly cloudy
Temperature: 87 F (31 C)
Heat index: 99.7 F (37.6 C):1
Dew Point: 78 F (26 C)
Relative Humidity: 74%
Pressure (altimeter): 29.77 in. Hg (1008 hPa)
ob: VCBI 120910Z 33006KT 270V060 9999 SCT018 31/26 Q1008 NOSIG
cycle: 9

Station Type Date Time Source
VCBI TAF 2019/12/12 06:03 UTC NOAA

TAF TAF VCBI 120500Z 1206/1312 01010KT 9999 FEW018 TX30/1208Z TN24/1300Z

Example: see airport list